sensor_id;sensor_type;location;lat;lon;timestamp;temperature;humidity
39493;DHT22;25176;51.060;3.720;2022-10-31T00:02:07;16.20;98.00
39493;DHT22;25176;51.060;3.720;2022-10-31T00:04:33;16.10;98.00
39493;DHT22;25176;51.060;3.720;2022-10-31T00:06:58;16.10;98.10
39493;DHT22;25176;51.060;3.720;2022-10-31T00:09:23;16.00;98.10
39493;DHT22;25176;51.060;3.720;2022-10-31T00:11:49;16.10;98.10
39493;DHT22;25176;51.060;3.720;2022-10-31T00:14:14;16.10;98.20
39493;DHT22;25176;51.060;3.720;2022-10-31T00:16:40;16.10;98.10
39493;DHT22;25176;51.060;3.720;2022-10-31T00:19:07;16.10;98.30
39493;DHT22;25176;51.060;3.720;2022-10-31T00:21:32;16.00;98.20
39493;DHT22;25176;51.060;3.720;2022-10-31T00:23:58;16.00;98.20
39493;DHT22;25176;51.060;3.720;2022-10-31T00:26:24;16.10;98.20
39493;DHT22;25176;51.060;3.720;2022-10-31T00:28:49;16.00;98.10
39493;DHT22;25176;51.060;3.720;2022-10-31T00:31:16;16.00;98.30
39493;DHT22;25176;51.060;3.720;2022-10-31T00:33:41;15.90;98.50
39493;DHT22;25176;51.060;3.720;2022-10-31T00:36:09;15.80;98.70
39493;DHT22;25176;51.060;3.720;2022-10-31T00:38:35;15.80;98.80
39493;DHT22;25176;51.060;3.720;2022-10-31T00:41:01;15.80;98.80
39493;DHT22;25176;51.060;3.720;2022-10-31T00:43:26;15.80;98.80
39493;DHT22;25176;51.060;3.720;2022-10-31T00:45:51;15.80;98.90
39493;DHT22;25176;51.060;3.720;2022-10-31T00:48:17;15.70;98.80
39493;DHT22;25176;51.060;3.720;2022-10-31T00:50:42;15.70;99.10
39493;DHT22;25176;51.060;3.720;2022-10-31T00:53:08;15.80;99.00
39493;DHT22;25176;51.060;3.720;2022-10-31T00:55:33;15.80;99.00
39493;DHT22;25176;51.060;3.720;2022-10-31T00:57:59;15.80;99.20
39493;DHT22;25176;51.060;3.720;2022-10-31T01:00:24;15.80;99.10
39493;DHT22;25176;51.060;3.720;2022-10-31T01:02:50;15.80;99.00
39493;DHT22;25176;51.060;3.720;2022-10-31T01:05:16;15.70;99.00
39493;DHT22;25176;51.060;3.720;2022-10-31T01:07:41;15.60;99.20
39493;DHT22;25176;51.060;3.720;2022-10-31T01:10:08;15.70;99.30
39493;DHT22;25176;51.060;3.720;2022-10-31T01:12:37;15.60;99.30
39493;DHT22;25176;51.060;3.720;2022-10-31T01:15:03;15.60;99.40
39493;DHT22;25176;51.060;3.720;2022-10-31T01:17:28;15.50;99.40
39493;DHT22;25176;51.060;3.720;2022-10-31T01:19:54;15.50;99.50
39493;DHT22;25176;51.060;3.720;2022-10-31T01:22:19;15.50;99.50
39493;DHT22;25176;51.060;3.720;2022-10-31T01:24:45;15.50;99.40
39493;DHT22;25176;51.060;3.720;2022-10-31T01:27:10;15.50;99.60
39493;DHT22;25176;51.060;3.720;2022-10-31T01:29:35;15.50;99.50
39493;DHT22;25176;51.060;3.720;2022-10-31T01:32:01;15.50;99.70
39493;DHT22;25176;51.060;3.720;2022-10-31T01:34:27;15.50;99.60
39493;DHT22;25176;51.060;3.720;2022-10-31T01:36:52;15.50;99.60
39493;DHT22;25176;51.060;3.720;2022-10-31T01:39:18;15.50;99.60
39493;DHT22;25176;51.060;3.720;2022-10-31T01:41:48;15.50;99.60
39493;DHT22;25176;51.060;3.720;2022-10-31T01:46:50;15.60;99.40
39493;DHT22;25176;51.060;3.720;2022-10-31T01:49:24;15.60;99.40
39493;DHT22;25176;51.060;3.720;2022-10-31T01:51:58;15.60;99.50
39493;DHT22;25176;51.060;3.720;2022-10-31T01:54:24;15.50;99.60
39493;DHT22;25176;51.060;3.720;2022-10-31T01:56:52;15.50;99.70
39493;DHT22;25176;51.060;3.720;2022-10-31T01:59:19;15.50;99.70
39493;DHT22;25176;51.060;3.720;2022-10-31T02:01:46;15.50;99.80
39493;DHT22;25176;51.060;3.720;2022-10-31T02:04:12;15.50;99.80
39493;DHT22;25176;51.060;3.720;2022-10-31T02:06:51;15.40;99.80
39493;DHT22;25176;51.060;3.720;2022-10-31T02:09:20;15.40;99.90
39493;DHT22;25176;51.060;3.720;2022-10-31T02:11:49;15.40;99.90
39493;DHT22;25176;51.060;3.720;2022-10-31T02:14:16;15.40;99.90
39493;DHT22;25176;51.060;3.720;2022-10-31T02:16:41;15.30;99.90
39493;DHT22;25176;51.060;3.720;2022-10-31T02:19:07;15.40;99.90
39493;DHT22;25176;51.060;3.720;2022-10-31T02:21:39;15.40;99.90
39493;DHT22;25176;51.060;3.720;2022-10-31T02:34:34;15.30;99.90
39493;DHT22;25176;51.060;3.720;2022-10-31T02:39:42;15.30;99.90
39493;DHT22;25176;51.060;3.720;2022-10-31T02:47:28;15.50;99.90
39493;DHT22;25176;51.060;3.720;2022-10-31T02:50:02;15.40;99.90
39493;DHT22;25176;51.060;3.720;2022-10-31T02:52:30;15.30;99.90
39493;DHT22;25176;51.060;3.720;2022-10-31T02:54:56;15.20;99.90
39493;DHT22;25176;51.060;3.720;2022-10-31T02:57:25;15.20;99.90
39493;DHT22;25176;51.060;3.720;2022-10-31T02:59:55;15.30;99.90
39493;DHT22;25176;51.060;3.720;2022-10-31T03:07:35;15.20;99.90
39493;DHT22;25176;51.060;3.720;2022-10-31T03:10:14;15.10;99.90
39493;DHT22;25176;51.060;3.720;2022-10-31T03:12:49;15.10;99.90
39493;DHT22;25176;51.060;3.720;2022-10-31T03:15:22;15.10;99.90
39493;DHT22;25176;51.060;3.720;2022-10-31T03:17:53;15.10;99.90
39493;DHT22;25176;51.060;3.720;2022-10-31T03:20:21;15.20;99.90
39493;DHT22;25176;51.060;3.720;2022-10-31T03:22:48;15.10;99.90
39493;DHT22;25176;51.060;3.720;2022-10-31T03:25:14;15.10;99.90
39493;DHT22;25176;51.060;3.720;2022-10-31T03:27:40;15.00;99.90
39493;DHT22;25176;51.060;3.720;2022-10-31T03:30:07;15.00;99.90
39493;DHT22;25176;51.060;3.720;2022-10-31T03:32:37;14.90;99.90
39493;DHT22;25176;51.060;3.720;2022-10-31T03:35:04;14.90;99.90
39493;DHT22;25176;51.060;3.720;2022-10-31T03:37:32;14.90;99.90
39493;DHT22;25176;51.060;3.720;2022-10-31T03:39:58;14.90;99.90
39493;DHT22;25176;51.060;3.720;2022-10-31T03:42:25;14.90;99.90
39493;DHT22;25176;51.060;3.720;2022-10-31T03:44:59;14.90;99.90
39493;DHT22;25176;51.060;3.720;2022-10-31T03:47:26;14.80;99.90
39493;DHT22;25176;51.060;3.720;2022-10-31T03:49:51;14.80;99.90
39493;DHT22;25176;51.060;3.720;2022-10-31T03:52:23;14.90;99.90
39493;DHT22;25176;51.060;3.720;2022-10-31T03:54:56;14.90;99.90
39493;DHT22;25176;51.060;3.720;2022-10-31T03:57:27;14.80;99.90
39493;DHT22;25176;51.060;3.720;2022-10-31T04:02:30;14.90;99.90
39493;DHT22;25176;51.060;3.720;2022-10-31T04:04:56;14.90;99.90
39493;DHT22;25176;51.060;3.720;2022-10-31T04:07:21;14.90;99.90
39493;DHT22;25176;51.060;3.720;2022-10-31T04:09:48;14.80;99.90
39493;DHT22;25176;51.060;3.720;2022-10-31T04:12:15;14.90;99.90
39493;DHT22;25176;51.060;3.720;2022-10-31T04:14:43;15.00;99.90
39493;DHT22;25176;51.060;3.720;2022-10-31T04:17:10;14.90;99.90
39493;DHT22;25176;51.060;3.720;2022-10-31T04:19:37;14.90;99.90
39493;DHT22;25176;51.060;3.720;2022-10-31T04:22:03;14.90;99.90
39493;DHT22;25176;51.060;3.720;2022-10-31T04:24:28;14.80;99.90
39493;DHT22;25176;51.060;3.720;2022-10-31T04:26:53;14.80;99.90
39493;DHT22;25176;51.060;3.720;2022-10-31T04:29:19;14.70;99.90
39493;DHT22;25176;51.060;3.720;2022-10-31T04:31:44;14.50;99.90
39493;DHT22;25176;51.060;3.720;2022-10-31T04:34:10;14.40;99.90
39493;DHT22;25176;51.060;3.720;2022-10-31T04:36:35;14.40;99.90
39493;DHT22;25176;51.060;3.720;2022-10-31T04:39:01;14.40;99.90
39493;DHT22;25176;51.060;3.720;2022-10-31T04:41:26;14.30;99.90
39493;DHT22;25176;51.060;3.720;2022-10-31T04:43:52;14.30;99.90
39493;DHT22;25176;51.060;3.720;2022-10-31T04:46:17;14.30;99.90
39493;DHT22;25176;51.060;3.720;2022-10-31T04:48:43;14.30;99.90
39493;DHT22;25176;51.060;3.720;2022-10-31T04:51:08;14.30;99.90
39493;DHT22;25176;51.060;3.720;2022-10-31T04:53:33;14.20;99.90
39493;DHT22;25176;51.060;3.720;2022-10-31T04:55:59;14.20;99.90
39493;DHT22;25176;51.060;3.720;2022-10-31T04:58:28;14.20;99.90
39493;DHT22;25176;51.060;3.720;2022-10-31T05:00:53;14.20;99.90
39493;DHT22;25176;51.060;3.720;2022-10-31T05:03:19;14.20;99.90
39493;DHT22;25176;51.060;3.720;2022-10-31T05:05:44;14.00;99.90
39493;DHT22;25176;51.060;3.720;2022-10-31T05:08:10;13.90;99.90
39493;DHT22;25176;51.060;3.720;2022-10-31T05:10:35;13.70;99.90
39493;DHT22;25176;51.060;3.720;2022-10-31T05:13:02;13.70;99.90
39493;DHT22;25176;51.060;3.720;2022-10-31T05:15:27;13.80;99.90
39493;DHT22;25176;51.060;3.720;2022-10-31T05:17:53;13.80;99.90
39493;DHT22;25176;51.060;3.720;2022-10-31T05:20:20;13.70;99.90
39493;DHT22;25176;51.060;3.720;2022-10-31T05:22:46;13.70;99.90
39493;DHT22;25176;51.060;3.720;2022-10-31T05:25:12;13.70;99.90
39493;DHT22;25176;51.060;3.720;2022-10-31T05:27:39;13.60;99.90
39493;DHT22;25176;51.060;3.720;2022-10-31T05:30:04;13.60;99.90
39493;DHT22;25176;51.060;3.720;2022-10-31T05:32:35;13.60;99.90
39493;DHT22;25176;51.060;3.720;2022-10-31T05:35:01;13.60;99.90
39493;DHT22;25176;51.060;3.720;2022-10-31T05:37:26;13.60;99.90
39493;DHT22;25176;51.060;3.720;2022-10-31T05:39:51;13.50;99.90
39493;DHT22;25176;51.060;3.720;2022-10-31T05:42:17;13.50;99.90
39493;DHT22;25176;51.060;3.720;2022-10-31T05:44:42;13.40;99.90
39493;DHT22;25176;51.060;3.720;2022-10-31T05:47:08;13.40;99.90
39493;DHT22;25176;51.060;3.720;2022-10-31T05:49:33;13.40;99.90
39493;DHT22;25176;51.060;3.720;2022-10-31T05:51:59;13.40;99.90
39493;DHT22;25176;51.060;3.720;2022-10-31T05:54:24;13.40;99.90
39493;DHT22;25176;51.060;3.720;2022-10-31T05:56:50;13.40;99.90
39493;DHT22;25176;51.060;3.720;2022-10-31T05:59:15;13.30;99.90
39493;DHT22;25176;51.060;3.720;2022-10-31T06:01:41;13.40;99.90
39493;DHT22;25176;51.060;3.720;2022-10-31T06:04:06;13.30;99.90
39493;DHT22;25176;51.060;3.720;2022-10-31T06:06:31;13.30;99.90
39493;DHT22;25176;51.060;3.720;2022-10-31T06:08:57;13.40;99.90
39493;DHT22;25176;51.060;3.720;2022-10-31T06:11:22;13.30;99.90
39493;DHT22;25176;51.060;3.720;2022-10-31T06:13:48;13.30;99.90
39493;DHT22;25176;51.060;3.720;2022-10-31T06:16:13;13.40;99.90
39493;DHT22;25176;51.060;3.720;2022-10-31T06:18:39;13.30;99.90
39493;DHT22;25176;51.060;3.720;2022-10-31T06:21:04;13.40;99.90
39493;DHT22;25176;51.060;3.720;2022-10-31T06:23:30;13.50;99.90
39493;DHT22;25176;51.060;3.720;2022-10-31T06:25:55;13.50;99.90
39493;DHT22;25176;51.060;3.720;2022-10-31T06:28:21;13.50;99.90
39493;DHT22;25176;51.060;3.720;2022-10-31T06:30:46;13.40;99.90
39493;DHT22;25176;51.060;3.720;2022-10-31T06:33:12;13.40;99.90
39493;DHT22;25176;51.060;3.720;2022-10-31T06:35:37;13.40;99.90
39493;DHT22;25176;51.060;3.720;2022-10-31T06:38:03;13.50;99.90
39493;DHT22;25176;51.060;3.720;2022-10-31T06:40:28;13.60;99.90
39493;DHT22;25176;51.060;3.720;2022-10-31T06:42:57;13.60;99.90
39493;DHT22;25176;51.060;3.720;2022-10-31T06:45:23;13.40;99.90
39493;DHT22;25176;51.060;3.720;2022-10-31T06:47:52;13.40;99.90
39493;DHT22;25176;51.060;3.720;2022-10-31T06:50:18;13.40;99.90
39493;DHT22;25176;51.060;3.720;2022-10-31T06:52:49;13.60;99.90
39493;DHT22;25176;51.060;3.720;2022-10-31T06:55:14;13.70;99.90
39493;DHT22;25176;51.060;3.720;2022-10-31T06:57:40;13.80;99.90
39493;DHT22;25176;51.060;3.720;2022-10-31T07:00:06;13.60;99.90
39493;DHT22;25176;51.060;3.720;2022-10-31T07:02:31;13.60;99.90
39493;DHT22;25176;51.060;3.720;2022-10-31T07:04:57;13.50;99.90
39493;DHT22;25176;51.060;3.720;2022-10-31T07:07:22;13.40;99.90
39493;DHT22;25176;51.060;3.720;2022-10-31T07:09:47;13.30;99.90
39493;DHT22;25176;51.060;3.720;2022-10-31T07:12:13;13.40;99.90
39493;DHT22;25176;51.060;3.720;2022-10-31T07:14:38;13.40;99.90
39493;DHT22;25176;51.060;3.720;2022-10-31T07:17:04;13.50;99.90
39493;DHT22;25176;51.060;3.720;2022-10-31T07:19:29;13.50;99.90
39493;DHT22;25176;51.060;3.720;2022-10-31T07:21:55;13.50;99.90
39493;DHT22;25176;51.060;3.720;2022-10-31T07:24:21;13.60;99.90
39493;DHT22;25176;51.060;3.720;2022-10-31T07:26:47;13.70;99.90
39493;DHT22;25176;51.060;3.720;2022-10-31T07:29:12;14.00;99.90
39493;DHT22;25176;51.060;3.720;2022-10-31T07:31:38;13.80;99.90
39493;DHT22;25176;51.060;3.720;2022-10-31T07:34:03;14.00;99.90
39493;DHT22;25176;51.060;3.720;2022-10-31T07:36:29;14.30;99.90
39493;DHT22;25176;51.060;3.720;2022-10-31T07:38:54;14.30;99.90
39493;DHT22;25176;51.060;3.720;2022-10-31T07:41:20;14.30;99.90
39493;DHT22;25176;51.060;3.720;2022-10-31T07:43:46;14.30;99.90
39493;DHT22;25176;51.060;3.720;2022-10-31T07:46:11;14.20;99.90
39493;DHT22;25176;51.060;3.720;2022-10-31T07:48:37;14.10;99.90
39493;DHT22;25176;51.060;3.720;2022-10-31T07:51:02;14.00;99.90
39493;DHT22;25176;51.060;3.720;2022-10-31T07:53:28;14.10;99.90
39493;DHT22;25176;51.060;3.720;2022-10-31T07:55:53;14.20;99.90
39493;DHT22;25176;51.060;3.720;2022-10-31T07:58:19;14.30;99.90
39493;DHT22;25176;51.060;3.720;2022-10-31T08:00:45;14.20;99.90
39493;DHT22;25176;51.060;3.720;2022-10-31T08:03:11;13.80;99.90
39493;DHT22;25176;51.060;3.720;2022-10-31T08:05:37;13.60;99.90
39493;DHT22;25176;51.060;3.720;2022-10-31T08:08:03;13.80;99.90
39493;DHT22;25176;51.060;3.720;2022-10-31T08:10:29;13.80;99.90
39493;DHT22;25176;51.060;3.720;2022-10-31T08:12:55;14.10;99.90
39493;DHT22;25176;51.060;3.720;2022-10-31T08:15:21;14.20;99.90
39493;DHT22;25176;51.060;3.720;2022-10-31T08:17:46;14.30;99.90
39493;DHT22;25176;51.060;3.720;2022-10-31T08:20:11;14.40;99.90
39493;DHT22;25176;51.060;3.720;2022-10-31T08:22:37;14.40;99.90
39493;DHT22;25176;51.060;3.720;2022-10-31T08:25:02;14.60;99.90
39493;DHT22;25176;51.060;3.720;2022-10-31T08:27:28;14.70;99.90
39493;DHT22;25176;51.060;3.720;2022-10-31T08:29:53;14.70;99.90
39493;DHT22;25176;51.060;3.720;2022-10-31T08:32:19;14.80;99.90
39493;DHT22;25176;51.060;3.720;2022-10-31T08:34:44;15.00;99.90
39493;DHT22;25176;51.060;3.720;2022-10-31T08:37:10;15.10;99.90
39493;DHT22;25176;51.060;3.720;2022-10-31T08:39:35;15.30;99.90
39493;DHT22;25176;51.060;3.720;2022-10-31T08:42:01;15.20;99.90
39493;DHT22;25176;51.060;3.720;2022-10-31T08:44:26;15.20;99.90
39493;DHT22;25176;51.060;3.720;2022-10-31T08:46:51;15.20;99.90
39493;DHT22;25176;51.060;3.720;2022-10-31T08:49:17;15.40;99.90
39493;DHT22;25176;51.060;3.720;2022-10-31T08:51:42;15.60;99.90
39493;DHT22;25176;51.060;3.720;2022-10-31T08:54:08;15.80;99.90
39493;DHT22;25176;51.060;3.720;2022-10-31T08:56:33;15.70;99.90
39493;DHT22;25176;51.060;3.720;2022-10-31T08:59:00;15.60;99.90
39493;DHT22;25176;51.060;3.720;2022-10-31T09:01:26;15.70;99.90
39493;DHT22;25176;51.060;3.720;2022-10-31T09:03:51;15.80;99.90
39493;DHT22;25176;51.060;3.720;2022-10-31T09:06:17;15.80;99.90
39493;DHT22;25176;51.060;3.720;2022-10-31T09:08:42;16.00;99.90
39493;DHT22;25176;51.060;3.720;2022-10-31T09:11:08;15.90;99.90
39493;DHT22;25176;51.060;3.720;2022-10-31T09:13:33;15.80;99.90
39493;DHT22;25176;51.060;3.720;2022-10-31T09:15:59;15.70;99.90
39493;DHT22;25176;51.060;3.720;2022-10-31T09:18:24;15.80;99.90
39493;DHT22;25176;51.060;3.720;2022-10-31T09:20:53;15.70;99.90
39493;DHT22;25176;51.060;3.720;2022-10-31T09:23:22;15.70;99.90
39493;DHT22;25176;51.060;3.720;2022-10-31T09:25:48;15.80;99.90
39493;DHT22;25176;51.060;3.720;2022-10-31T09:28:14;16.00;99.90
39493;DHT22;25176;51.060;3.720;2022-10-31T09:30:40;15.80;99.90
39493;DHT22;25176;51.060;3.720;2022-10-31T09:33:08;15.70;99.90
39493;DHT22;25176;51.060;3.720;2022-10-31T09:35:34;15.80;99.90
39493;DHT22;25176;51.060;3.720;2022-10-31T09:38:01;15.80;99.90
39493;DHT22;25176;51.060;3.720;2022-10-31T09:40:30;15.50;99.90
39493;DHT22;25176;51.060;3.720;2022-10-31T09:50:57;15.40;99.90
39493;DHT22;25176;51.060;3.720;2022-10-31T09:53:37;15.40;99.90
39493;DHT22;25176;51.060;3.720;2022-10-31T09:56:07;15.00;99.90
39493;DHT22;25176;51.060;3.720;2022-10-31T09:58:35;15.00;99.90
39493;DHT22;25176;51.060;3.720;2022-10-31T10:01:02;14.80;99.90
39493;DHT22;25176;51.060;3.720;2022-10-31T10:03:30;14.60;99.90
39493;DHT22;25176;51.060;3.720;2022-10-31T10:06:00;14.70;99.90
39493;DHT22;25176;51.060;3.720;2022-10-31T10:08:27;14.80;99.90
39493;DHT22;25176;51.060;3.720;2022-10-31T10:19:15;15.60;99.90
39493;DHT22;25176;51.060;3.720;2022-10-31T10:26:50;15.40;99.90
39493;DHT22;25176;51.060;3.720;2022-10-31T10:30:01;15.40;99.90
39493;DHT22;25176;51.060;3.720;2022-10-31T10:32:09;15.60;99.90
39493;DHT22;25176;51.060;3.720;2022-10-31T10:34:37;15.90;99.90
39493;DHT22;25176;51.060;3.720;2022-10-31T10:37:28;16.00;99.90
39493;DHT22;25176;51.060;3.720;2022-10-31T10:39:53;16.10;99.90
39493;DHT22;25176;51.060;3.720;2022-10-31T10:42:19;16.20;99.90
39493;DHT22;25176;51.060;3.720;2022-10-31T10:45:13;16.30;99.90
39493;DHT22;25176;51.060;3.720;2022-10-31T10:48:01;16.60;99.90
39493;DHT22;25176;51.060;3.720;2022-10-31T10:50:31;16.90;99.90
39493;DHT22;25176;51.060;3.720;2022-10-31T10:55:36;16.60;99.90
39493;DHT22;25176;51.060;3.720;2022-10-31T10:58:08;16.30;99.90
39493;DHT22;25176;51.060;3.720;2022-10-31T11:00:40;16.30;99.90
39493;DHT22;25176;51.060;3.720;2022-10-31T11:03:06;16.40;99.90
39493;DHT22;25176;51.060;3.720;2022-10-31T11:05:39;16.70;99.90
39493;DHT22;25176;51.060;3.720;2022-10-31T11:08:06;16.90;99.90
39493;DHT22;25176;51.060;3.720;2022-10-31T11:10:31;16.70;99.90
39493;DHT22;25176;51.060;3.720;2022-10-31T11:18:39;16.70;99.90
39493;DHT22;25176;51.060;3.720;2022-10-31T11:21:05;16.50;99.90
39493;DHT22;25176;51.060;3.720;2022-10-31T11:23:31;16.30;99.90
39493;DHT22;25176;51.060;3.720;2022-10-31T11:25:59;16.40;99.90
39493;DHT22;25176;51.060;3.720;2022-10-31T11:28:25;16.40;99.90
39493;DHT22;25176;51.060;3.720;2022-10-31T11:33:31;16.10;99.90
39493;DHT22;25176;51.060;3.720;2022-10-31T11:35:57;16.20;99.90
39493;DHT22;25176;51.060;3.720;2022-10-31T11:38:24;16.30;99.90
39493;DHT22;25176;51.060;3.720;2022-10-31T11:40:59;16.30;99.90
39493;DHT22;25176;51.060;3.720;2022-10-31T11:43:25;16.40;99.90
39493;DHT22;25176;51.060;3.720;2022-10-31T11:45:51;16.50;99.90
39493;DHT22;25176;51.060;3.720;2022-10-31T11:48:18;16.40;99.90
39493;DHT22;25176;51.060;3.720;2022-10-31T11:50:49;16.60;99.90
39493;DHT22;25176;51.060;3.720;2022-10-31T11:53:26;16.80;99.90
39493;DHT22;25176;51.060;3.720;2022-10-31T11:56:12;16.80;99.90
39493;DHT22;25176;51.060;3.720;2022-10-31T11:58:38;16.60;99.90
39493;DHT22;25176;51.060;3.720;2022-10-31T12:01:03;16.50;99.90
39493;DHT22;25176;51.060;3.720;2022-10-31T12:03:33;16.60;99.90
39493;DHT22;25176;51.060;3.720;2022-10-31T12:06:16;16.60;99.90
39493;DHT22;25176;51.060;3.720;2022-10-31T12:08:43;16.60;99.90
39493;DHT22;25176;51.060;3.720;2022-10-31T12:11:11;16.60;99.90
39493;DHT22;25176;51.060;3.720;2022-10-31T12:19:01;16.70;99.90
39493;DHT22;25176;51.060;3.720;2022-10-31T12:21:34;16.70;99.90
39493;DHT22;25176;51.060;3.720;2022-10-31T12:24:07;16.60;99.90
39493;DHT22;25176;51.060;3.720;2022-10-31T12:41:59;17.00;99.90
39493;DHT22;25176;51.060;3.720;2022-10-31T12:44:39;17.00;99.90
39493;DHT22;25176;51.060;3.720;2022-10-31T12:52:06;16.80;99.90
39493;DHT22;25176;51.060;3.720;2022-10-31T13:02:41;16.80;99.90
39493;DHT22;25176;51.060;3.720;2022-10-31T13:05:26;17.00;99.90
39493;DHT22;25176;51.060;3.720;2022-10-31T13:07:57;17.10;99.90
39493;DHT22;25176;51.060;3.720;2022-10-31T13:12:49;16.80;99.90
39493;DHT22;25176;51.060;3.720;2022-10-31T13:15:21;16.90;99.90
39493;DHT22;25176;51.060;3.720;2022-10-31T13:17:52;16.90;99.90
39493;DHT22;25176;51.060;3.720;2022-10-31T13:20:24;16.70;99.90
39493;DHT22;25176;51.060;3.720;2022-10-31T13:23:14;16.80;99.90
39493;DHT22;25176;51.060;3.720;2022-10-31T13:25:39;17.00;99.90
39493;DHT22;25176;51.060;3.720;2022-10-31T13:30:36;17.00;99.90
39493;DHT22;25176;51.060;3.720;2022-10-31T13:37:58;17.00;99.90
39493;DHT22;25176;51.060;3.720;2022-10-31T13:45:24;17.00;99.90
39493;DHT22;25176;51.060;3.720;2022-10-31T13:50:34;17.00;99.90
39493;DHT22;25176;51.060;3.720;2022-10-31T13:53:14;17.00;99.90
39493;DHT22;25176;51.060;3.720;2022-10-31T13:55:44;16.90;99.90
39493;DHT22;25176;51.060;3.720;2022-10-31T14:03:33;16.90;99.90
39493;DHT22;25176;51.060;3.720;2022-10-31T14:06:00;16.80;99.90
39493;DHT22;25176;51.060;3.720;2022-10-31T14:08:26;16.80;99.90
39493;DHT22;25176;51.060;3.720;2022-10-31T14:10:53;16.80;99.90
39493;DHT22;25176;51.060;3.720;2022-10-31T14:13:53;16.80;99.90
39493;DHT22;25176;51.060;3.720;2022-10-31T14:16:42;16.80;99.90
39493;DHT22;25176;51.060;3.720;2022-10-31T14:19:13;16.80;99.90
39493;DHT22;25176;51.060;3.720;2022-10-31T14:21:46;16.70;99.90
39493;DHT22;25176;51.060;3.720;2022-10-31T14:24:15;16.80;99.90
39493;DHT22;25176;51.060;3.720;2022-10-31T14:26:50;16.70;99.90
39493;DHT22;25176;51.060;3.720;2022-10-31T14:31:43;16.70;99.90
39493;DHT22;25176;51.060;3.720;2022-10-31T14:36:40;16.70;99.90
39493;DHT22;25176;51.060;3.720;2022-10-31T14:39:11;16.70;99.90
39493;DHT22;25176;51.060;3.720;2022-10-31T14:41:46;16.70;99.90
39493;DHT22;25176;51.060;3.720;2022-10-31T14:49:12;17.00;99.90
39493;DHT22;25176;51.060;3.720;2022-10-31T14:51:42;17.10;99.90
39493;DHT22;25176;51.060;3.720;2022-10-31T14:54:11;17.00;99.90
39493;DHT22;25176;51.060;3.720;2022-10-31T14:56:46;17.10;99.90
39493;DHT22;25176;51.060;3.720;2022-10-31T14:59:13;17.10;99.90
39493;DHT22;25176;51.060;3.720;2022-10-31T15:01:53;17.00;99.90
39493;DHT22;25176;51.060;3.720;2022-10-31T15:04:23;16.90;99.90
39493;DHT22;25176;51.060;3.720;2022-10-31T15:06:49;16.90;99.90
39493;DHT22;25176;51.060;3.720;2022-10-31T15:09:22;16.90;99.90
39493;DHT22;25176;51.060;3.720;2022-10-31T15:11:48;16.80;99.90
39493;DHT22;25176;51.060;3.720;2022-10-31T15:14:20;16.90;99.90
39493;DHT22;25176;51.060;3.720;2022-10-31T15:16:47;16.90;99.90
39493;DHT22;25176;51.060;3.720;2022-10-31T15:19:14;16.90;99.90
39493;DHT22;25176;51.060;3.720;2022-10-31T15:21:42;16.90;99.90
39493;DHT22;25176;51.060;3.720;2022-10-31T15:24:10;16.90;99.90
39493;DHT22;25176;51.060;3.720;2022-10-31T15:26:40;16.90;99.90
39493;DHT22;25176;51.060;3.720;2022-10-31T15:29:11;17.00;99.90
39493;DHT22;25176;51.060;3.720;2022-10-31T15:31:37;17.00;99.90
39493;DHT22;25176;51.060;3.720;2022-10-31T15:34:06;16.90;99.90
39493;DHT22;25176;51.060;3.720;2022-10-31T15:36:32;16.90;99.90
39493;DHT22;25176;51.060;3.720;2022-10-31T15:38:58;16.90;99.90
39493;DHT22;25176;51.060;3.720;2022-10-31T15:44:21;16.90;99.90
39493;DHT22;25176;51.060;3.720;2022-10-31T15:49:29;16.90;99.90
39493;DHT22;25176;51.060;3.720;2022-10-31T15:51:55;16.90;99.90
39493;DHT22;25176;51.060;3.720;2022-10-31T15:54:20;16.90;99.90
39493;DHT22;25176;51.060;3.720;2022-10-31T15:56:46;16.80;99.90
39493;DHT22;25176;51.060;3.720;2022-10-31T15:59:16;16.80;99.90
39493;DHT22;25176;51.060;3.720;2022-10-31T16:01:43;16.80;99.90
39493;DHT22;25176;51.060;3.720;2022-10-31T16:04:23;16.80;99.90
39493;DHT22;25176;51.060;3.720;2022-10-31T16:09:33;16.80;99.90
39493;DHT22;25176;51.060;3.720;2022-10-31T16:11:58;16.70;99.90
39493;DHT22;25176;51.060;3.720;2022-10-31T16:14:28;16.70;99.90
39493;DHT22;25176;51.060;3.720;2022-10-31T16:16:55;16.70;99.90
39493;DHT22;25176;51.060;3.720;2022-10-31T16:19:28;16.70;99.90
39493;DHT22;25176;51.060;3.720;2022-10-31T16:22:13;16.70;99.90
39493;DHT22;25176;51.060;3.720;2022-10-31T16:24:48;16.70;99.90
39493;DHT22;25176;51.060;3.720;2022-10-31T16:27:48;16.60;99.90
39493;DHT22;25176;51.060;3.720;2022-10-31T16:35:45;16.60;99.90
39493;DHT22;25176;51.060;3.720;2022-10-31T16:38:10;16.60;99.90
39493;DHT22;25176;51.060;3.720;2022-10-31T16:40:37;16.50;99.90
39493;DHT22;25176;51.060;3.720;2022-10-31T16:43:03;16.50;99.90
39493;DHT22;25176;51.060;3.720;2022-10-31T16:45:29;16.50;99.90
39493;DHT22;25176;51.060;3.720;2022-10-31T16:48:01;16.40;99.90
39493;DHT22;25176;51.060;3.720;2022-10-31T16:50:27;16.40;99.90
39493;DHT22;25176;51.060;3.720;2022-10-31T16:52:52;16.40;99.90
39493;DHT22;25176;51.060;3.720;2022-10-31T16:55:19;16.40;99.90
39493;DHT22;25176;51.060;3.720;2022-10-31T16:57:50;16.40;99.90
39493;DHT22;25176;51.060;3.720;2022-10-31T17:00:17;16.40;99.90
39493;DHT22;25176;51.060;3.720;2022-10-31T17:02:43;16.40;99.90
39493;DHT22;25176;51.060;3.720;2022-10-31T17:05:14;16.40;99.90
39493;DHT22;25176;51.060;3.720;2022-10-31T17:07:40;16.40;99.90
39493;DHT22;25176;51.060;3.720;2022-10-31T17:10:05;16.30;99.90
39493;DHT22;25176;51.060;3.720;2022-10-31T17:12:31;16.30;99.90
39493;DHT22;25176;51.060;3.720;2022-10-31T17:14:56;16.30;99.90
39493;DHT22;25176;51.060;3.720;2022-10-31T17:17:22;16.40;99.90
39493;DHT22;25176;51.060;3.720;2022-10-31T17:19:47;16.30;99.90
39493;DHT22;25176;51.060;3.720;2022-10-31T17:22:13;16.30;99.90
39493;DHT22;25176;51.060;3.720;2022-10-31T17:24:39;16.30;99.90
39493;DHT22;25176;51.060;3.720;2022-10-31T17:27:04;16.30;99.90
39493;DHT22;25176;51.060;3.720;2022-10-31T17:29:30;16.20;99.90
39493;DHT22;25176;51.060;3.720;2022-10-31T17:31:56;16.20;99.90
39493;DHT22;25176;51.060;3.720;2022-10-31T17:34:22;16.20;99.90
39493;DHT22;25176;51.060;3.720;2022-10-31T17:36:51;16.20;99.90
39493;DHT22;25176;51.060;3.720;2022-10-31T17:39:17;16.20;99.90
39493;DHT22;25176;51.060;3.720;2022-10-31T17:41:42;16.20;99.90
39493;DHT22;25176;51.060;3.720;2022-10-31T17:44:11;16.20;99.90
39493;DHT22;25176;51.060;3.720;2022-10-31T17:46:37;16.20;99.90
39493;DHT22;25176;51.060;3.720;2022-10-31T17:49:02;16.30;99.90
39493;DHT22;25176;51.060;3.720;2022-10-31T17:51:29;16.20;99.90
39493;DHT22;25176;51.060;3.720;2022-10-31T17:53:56;16.20;99.90
39493;DHT22;25176;51.060;3.720;2022-10-31T17:56:21;16.20;99.90